Terminal Aerodrome Forecast
Issued by NWS

Home | Current Version | Previous Version | Text Only | Print | Product List | Glossary On
Versions: 1 2 3 4 5 6 7 8 9 10 11 12 13 14 15 16
000
FTUS42 KMLB 280500
TAFTIX
TAF
KTIX 280529Z 2806/2906 31010KT P6SM SKC
     FM281400 35013G19KT P6SM SKC
     FM290100 36007KT P6SM FEW035
      AMD NOT SKED TIL 281200=

USA.gov is the U.S. government's official web portal to all federal, state and local government web resources and services.